createdAt,value
2022-09-04T00:02:10.119Z,2.90
2022-09-04T00:04:43.718Z,3.70
2022-09-04T00:07:18.995Z,6.03
2022-09-04T00:09:49.573Z,3.28
2022-09-04T00:12:26.723Z,3.95
2022-09-04T00:14:57.249Z,4.00
2022-09-04T00:17:27.886Z,4.43
2022-09-04T00:19:59.430Z,4.32
2022-09-04T00:22:30.209Z,3.65
2022-09-04T00:25:01.110Z,3.63
2022-09-04T00:27:32.926Z,4.72
2022-09-04T00:30:07.380Z,4.65
2022-09-04T00:32:38.910Z,4.47
2022-09-04T00:35:08.940Z,5.75
2022-09-04T00:37:39.057Z,3.75
2022-09-04T00:40:09.150Z,4.18
2022-09-04T00:42:49.609Z,5.22
2022-09-04T00:45:24.080Z,7.07
2022-09-04T00:48:04.997Z,4.78
2022-09-04T00:50:37.395Z,6.25
2022-09-04T00:53:28.739Z,5.15
2022-09-04T00:58:36.566Z,5.85
2022-09-04T01:01:04.327Z,3.92
2022-09-04T01:03:37.560Z,4.60
2022-09-04T01:06:13.045Z,5.10
2022-09-04T01:08:48.013Z,9.07
2022-09-04T01:11:19.116Z,4.75
2022-09-04T01:13:51.403Z,4.93
2022-09-04T01:16:23.813Z,4.78
2022-09-04T01:18:56.269Z,4.60
2022-09-04T01:21:38.807Z,4.70
2022-09-04T01:24:19.541Z,5.68
2022-09-04T01:26:51.017Z,5.00
2022-09-04T01:29:28.322Z,4.80
2022-09-04T01:31:59.530Z,7.45
2022-09-04T01:34:34.986Z,6.82
2022-09-04T01:37:07.865Z,5.93
2022-09-04T01:39:37.987Z,5.70
2022-09-04T01:42:10.037Z,6.10
2022-09-04T01:44:38.064Z,5.35
2022-09-04T01:47:11.183Z,5.03
2022-09-04T01:49:39.528Z,5.05
2022-09-04T01:52:12.573Z,6.25
2022-09-04T01:54:47.275Z,7.93
2022-09-04T01:57:20.329Z,5.65
2022-09-04T01:59:54.099Z,5.60
2022-09-04T02:02:25.446Z,6.63
2022-09-04T02:04:59.477Z,5.03
2022-09-04T02:07:31.467Z,5.85
2022-09-04T02:10:07.690Z,7.28
2022-09-04T02:12:42.492Z,7.55
2022-09-04T02:15:13.284Z,5.85
2022-09-04T02:17:44.690Z,5.72
2022-09-04T02:20:17.582Z,6.30
2022-09-04T02:22:49.823Z,6.93
2022-09-04T02:25:21.724Z,6.00
2022-09-04T02:27:54.972Z,5.63
2022-09-04T02:30:22.616Z,5.80
2022-09-04T02:32:55.101Z,7.68
2022-09-04T02:35:24.798Z,7.75
2022-09-04T02:37:57.992Z,5.75
2022-09-04T02:40:29.166Z,6.07
2022-09-04T02:45:29.994Z,4.93
2022-09-04T02:48:01.374Z,4.85
2022-09-04T02:50:39.153Z,5.07
2022-09-04T02:53:17.873Z,6.00
2022-09-04T02:55:53.555Z,7.03
2022-09-04T02:58:25.443Z,7.32
2022-09-04T03:00:58.438Z,7.38
2022-09-04T03:03:28.815Z,6.72
2022-09-04T03:06:01.601Z,5.93
2022-09-04T03:08:36.228Z,6.00
2022-09-04T03:11:06.873Z,5.47
2022-09-04T03:13:38.081Z,6.70
2022-09-04T03:18:36.140Z,5.85
2022-09-04T03:21:07.619Z,5.88
2022-09-04T03:23:38.884Z,5.88
2022-09-04T03:28:37.827Z,5.97
2022-09-04T03:31:14.260Z,5.85
2022-09-04T03:33:47.669Z,6.18
2022-09-04T03:36:18.000Z,5.95
2022-09-04T03:38:51.263Z,7.72
2022-09-04T03:41:25.164Z,6.20
2022-09-04T03:43:57.595Z,7.05
2022-09-04T03:46:31.664Z,7.00
2022-09-04T03:49:07.439Z,5.95
2022-09-04T03:51:39.809Z,6.53
2022-09-04T03:54:13.813Z,6.20
2022-09-04T03:56:56.133Z,8.23
2022-09-04T03:59:32.662Z,5.57
2022-09-04T04:02:02.884Z,6.32
2022-09-04T04:04:44.029Z,6.25
2022-09-04T04:07:17.722Z,6.15
2022-09-04T04:09:50.845Z,8.50
2022-09-04T04:12:32.344Z,6.28
2022-09-04T04:15:06.104Z,8.43
2022-09-04T04:17:42.234Z,6.30
2022-09-04T04:20:22.057Z,6.18
2022-09-04T04:22:54.700Z,5.78
2022-09-04T04:25:29.679Z,5.68
2022-09-04T04:28:07.137Z,6.13
2022-09-04T04:30:38.623Z,6.45
2022-09-04T04:33:16.368Z,6.32
2022-09-04T04:35:50.938Z,6.05
2022-09-04T04:38:24.822Z,6.30
2022-09-04T04:41:06.275Z,6.20
2022-09-04T04:43:38.866Z,6.93
2022-09-04T04:46:11.419Z,6.63
2022-09-04T04:48:56.913Z,7.18
2022-09-04T04:51:39.659Z,7.43
2022-09-04T04:54:22.297Z,7.15
2022-09-04T04:56:54.319Z,8.18
2022-09-04T04:59:24.043Z,7.15
2022-09-04T05:01:56.200Z,6.72
2022-09-04T05:04:29.947Z,8.02
2022-09-04T05:07:00.831Z,7.38
2022-09-04T05:09:35.607Z,7.00
2022-09-04T05:12:07.068Z,8.57
2022-09-04T05:14:39.568Z,7.60
2022-09-04T05:17:15.585Z,7.38
2022-09-04T05:19:46.142Z,7.00
2022-09-04T05:22:18.973Z,6.55
2022-09-04T05:24:55.765Z,9.85
2022-09-04T05:27:41.486Z,7.80
2022-09-04T05:30:11.088Z,7.10
2022-09-04T05:32:40.668Z,7.63
2022-09-04T05:35:14.728Z,7.80
2022-09-04T05:37:46.118Z,10.38
2022-09-04T05:40:17.000Z,8.18
2022-09-04T05:42:52.934Z,10.93
2022-09-04T05:45:24.206Z,7.00
2022-09-04T05:50:27.968Z,7.90
2022-09-04T05:53:03.880Z,7.68
2022-09-04T05:55:43.271Z,8.70
2022-09-04T05:58:17.938Z,9.68
2022-09-04T06:00:48.284Z,10.75
2022-09-04T06:03:23.611Z,7.87
2022-09-04T06:06:17.905Z,10.40
2022-09-04T06:08:55.205Z,10.57
2022-09-04T06:11:33.082Z,7.47
2022-09-04T06:14:06.081Z,8.25
2022-09-04T06:16:39.126Z,10.73
2022-09-04T06:19:24.242Z,9.32
2022-09-04T06:21:59.963Z,8.27
2022-09-04T06:24:38.262Z,8.02
2022-09-04T06:27:12.089Z,8.13
2022-09-04T06:29:46.720Z,11.45
2022-09-04T06:32:25.831Z,9.38
2022-09-04T06:35:01.590Z,8.27
2022-09-04T06:37:34.353Z,9.55
2022-09-04T06:40:09.511Z,9.95
2022-09-04T06:42:43.723Z,8.75
2022-09-04T06:45:16.865Z,9.07
2022-09-04T06:47:52.769Z,10.15
2022-09-04T06:50:23.373Z,10.05
2022-09-04T06:53:01.036Z,11.10
2022-09-04T06:55:34.646Z,9.05
2022-09-04T06:58:09.607Z,12.68
2022-09-04T07:00:41.108Z,10.57
2022-09-04T07:03:25.406Z,10.48
2022-09-04T07:05:55.135Z,11.88
2022-09-04T07:08:31.908Z,11.50
2022-09-04T07:11:04.742Z,10.98
2022-09-04T07:13:51.867Z,10.90
2022-09-04T07:16:34.215Z,10.80
2022-09-04T07:19:09.554Z,10.75
2022-09-04T07:21:40.078Z,11.32
2022-09-04T07:24:09.762Z,14.00
2022-09-04T07:26:44.000Z,10.35
2022-09-04T07:29:30.375Z,12.82
2022-09-04T07:32:00.527Z,10.20
2022-09-04T07:34:32.386Z,12.80
2022-09-04T07:37:02.504Z,10.73
2022-09-04T07:39:31.948Z,12.90
2022-09-04T07:42:05.898Z,12.10
2022-09-04T07:44:35.951Z,10.35
2022-09-04T07:47:12.548Z,11.25
2022-09-04T07:49:44.375Z,12.25
2022-09-04T07:52:15.000Z,9.80
2022-09-04T07:54:52.778Z,8.85
2022-09-04T07:57:43.512Z,10.57
2022-09-04T08:00:14.092Z,11.38
2022-09-04T08:03:00.775Z,10.75
2022-09-04T08:05:30.863Z,9.23
2022-09-04T08:08:10.531Z,8.65
2022-09-04T08:10:40.286Z,9.60
2022-09-04T08:13:14.103Z,8.52
2022-09-04T08:15:43.734Z,8.05
2022-09-04T08:18:21.184Z,8.20
2022-09-04T08:20:52.446Z,9.13
2022-09-04T08:23:31.419Z,8.73
2022-09-04T08:26:03.829Z,8.18
2022-09-04T08:28:46.253Z,9.32
2022-09-04T08:31:18.165Z,9.10
2022-09-04T08:33:54.751Z,9.35
2022-09-04T08:36:26.275Z,9.45
2022-09-04T08:39:02.384Z,7.72
2022-09-04T08:41:57.952Z,10.35
2022-09-04T08:44:40.303Z,7.80
2022-09-04T08:47:19.611Z,7.68
2022-09-04T08:50:02.026Z,7.90
2022-09-04T08:53:00.660Z,6.60
2022-09-04T08:55:45.937Z,8.23
2022-09-04T08:58:34.576Z,7.05
2022-09-04T09:01:19.828Z,8.02
2022-09-04T09:03:56.641Z,8.60
2022-09-04T09:06:45.282Z,7.10
2022-09-04T09:09:23.166Z,6.55
2022-09-04T09:12:11.539Z,6.72
2022-09-04T09:14:50.178Z,7.15
2022-09-04T09:17:26.136Z,6.35
2022-09-04T09:20:11.016Z,7.28
2022-09-04T09:22:46.182Z,6.43
2022-09-04T09:25:16.806Z,7.15
2022-09-04T09:28:02.683Z,6.63
2022-09-04T09:30:36.289Z,6.50
2022-09-04T09:33:21.935Z,7.03
2022-09-04T09:36:06.385Z,5.93
2022-09-04T09:38:57.601Z,7.18
2022-09-04T09:41:41.902Z,6.53
2022-09-04T09:44:27.649Z,6.05
2022-09-04T09:47:21.097Z,7.20
2022-09-04T09:50:15.851Z,5.20
2022-09-04T09:52:59.354Z,4.80
2022-09-04T09:55:50.754Z,6.00
2022-09-04T09:58:30.772Z,4.63
2022-09-04T10:01:08.508Z,8.93
2022-09-04T10:03:48.795Z,7.55
2022-09-04T10:06:21.462Z,4.75
2022-09-04T10:09:09.691Z,7.88
2022-09-04T10:11:56.586Z,6.15
2022-09-04T10:14:42.875Z,8.40
2022-09-04T10:17:26.531Z,7.07
2022-09-04T10:20:11.531Z,3.55
2022-09-04T10:23:07.731Z,3.92
2022-09-04T10:25:49.716Z,5.05
2022-09-04T10:28:32.028Z,5.32
2022-09-04T10:31:12.217Z,5.13
2022-09-04T10:33:49.137Z,5.70
2022-09-04T10:36:23.589Z,4.80
2022-09-04T10:39:18.406Z,4.50
2022-09-04T10:41:53.510Z,5.60
2022-09-04T10:44:37.340Z,5.28
2022-09-04T10:47:11.155Z,3.42
2022-09-04T10:49:43.870Z,3.38
2022-09-04T10:52:21.703Z,6.10
2022-09-04T10:55:02.820Z,5.10
2022-09-04T10:57:42.118Z,6.55
2022-09-04T11:00:12.159Z,6.00
2022-09-04T11:03:03.277Z,3.97
2022-09-04T11:05:44.751Z,3.85
2022-09-04T11:08:21.960Z,5.53
2022-09-04T11:10:54.250Z,4.72
2022-09-04T11:13:38.010Z,4.38
2022-09-04T11:16:16.636Z,5.50
2022-09-04T11:19:10.413Z,5.55
2022-09-04T11:21:54.443Z,4.13
2022-09-04T11:24:41.415Z,3.30
2022-09-04T11:27:33.354Z,4.13
2022-09-04T11:30:06.253Z,3.72
2022-09-04T11:33:06.683Z,5.70
2022-09-04T11:35:49.085Z,3.30
2022-09-04T11:38:24.276Z,3.03
2022-09-04T11:41:15.542Z,4.75
2022-09-04T11:43:52.366Z,2.92
2022-09-04T11:46:30.091Z,3.15
2022-09-04T11:49:07.816Z,2.65
2022-09-04T11:51:48.512Z,3.55
2022-09-04T11:54:23.441Z,4.03
2022-09-04T11:56:58.849Z,2.90
2022-09-04T11:59:40.691Z,4.25
2022-09-04T12:02:19.028Z,3.20
2022-09-04T12:05:01.140Z,2.55
2022-09-04T12:07:42.611Z,2.38
2022-09-04T12:10:29.905Z,5.97
2022-09-04T12:13:07.635Z,4.40
2022-09-04T12:16:00.067Z,3.55
2022-09-04T12:19:00.696Z,2.92
2022-09-04T12:24:14.944Z,2.45
2022-09-04T12:26:59.814Z,2.83
2022-09-04T12:29:48.258Z,2.22
2022-09-04T12:32:28.756Z,2.85
2022-09-04T12:37:31.023Z,2.58
2022-09-04T12:40:09.156Z,3.53
2022-09-04T12:42:40.117Z,3.38
2022-09-04T12:45:12.912Z,2.97
2022-09-04T12:47:45.946Z,2.38
2022-09-04T12:50:28.079Z,4.88
2022-09-04T12:53:05.025Z,2.10
2022-09-04T12:55:36.478Z,3.10
2022-09-04T12:58:10.305Z,2.55
2022-09-04T13:00:49.224Z,2.75
2022-09-04T13:03:21.508Z,3.70
2022-09-04T13:05:53.878Z,3.05
2022-09-04T13:08:26.304Z,1.95
2022-09-04T13:11:01.404Z,2.97
2022-09-04T13:13:36.262Z,2.58
2022-09-04T13:16:08.858Z,4.18
2022-09-04T13:18:44.668Z,3.00
2022-09-04T13:21:18.456Z,2.33
2022-09-04T13:23:52.914Z,3.08
2022-09-04T13:26:30.957Z,5.72
2022-09-04T13:29:08.411Z,3.42
2022-09-04T13:31:47.192Z,2.78
2022-09-04T13:34:19.111Z,2.65
2022-09-04T13:36:54.006Z,4.15
2022-09-04T13:39:33.300Z,1.90
2022-09-04T13:42:12.193Z,2.53
2022-09-04T13:44:48.361Z,4.07
2022-09-04T13:47:20.904Z,3.08
2022-09-04T13:49:56.471Z,5.60
2022-09-04T13:52:27.768Z,3.13
2022-09-04T13:54:59.987Z,3.65
2022-09-04T13:57:28.913Z,2.53
2022-09-04T14:00:00.427Z,2.20
2022-09-04T14:02:30.156Z,2.15
2022-09-04T14:05:00.977Z,4.70
2022-09-04T14:07:31.587Z,2.10
2022-09-04T14:10:01.608Z,1.80
2022-09-04T14:12:53.856Z,2.40
2022-09-04T14:15:41.004Z,2.42
2022-09-04T14:18:16.727Z,2.08
2022-09-04T14:20:48.018Z,4.13
2022-09-04T14:23:24.596Z,4.00
2022-09-04T14:25:55.386Z,1.88
2022-09-04T14:28:27.132Z,2.40
2022-09-04T14:30:59.284Z,3.88
2022-09-04T14:33:36.107Z,2.85
2022-09-04T14:36:08.012Z,2.20
2022-09-04T14:38:50.398Z,2.88
2022-09-04T14:41:30.452Z,2.85
2022-09-04T14:44:07.361Z,3.58
2022-09-04T14:46:38.435Z,2.17
2022-09-04T14:49:08.670Z,2.80
2022-09-04T14:51:37.032Z,3.47
2022-09-04T14:54:04.915Z,2.25
2022-09-04T14:56:34.589Z,2.35
2022-09-04T14:59:07.503Z,3.35
2022-09-04T15:01:36.776Z,1.60
2022-09-04T15:04:08.333Z,5.05
2022-09-04T15:07:07.518Z,2.83
2022-09-04T15:09:35.531Z,4.40
2022-09-04T15:12:25.303Z,1.70
2022-09-04T15:14:55.600Z,4.10
2022-09-04T15:17:28.370Z,2.70
2022-09-04T15:20:00.798Z,4.68
2022-09-04T15:22:33.398Z,2.90
2022-09-04T15:25:04.133Z,2.85
2022-09-04T15:27:34.856Z,2.40
2022-09-04T15:30:06.466Z,2.35
2022-09-04T15:32:36.599Z,2.58
2022-09-04T15:35:12.349Z,1.67
2022-09-04T15:37:40.165Z,6.50
2022-09-04T15:40:10.828Z,5.88
2022-09-04T15:42:44.472Z,4.40
2022-09-04T15:45:17.248Z,1.40
2022-09-04T15:47:54.757Z,1.80
2022-09-04T15:50:25.939Z,3.72
2022-09-04T15:52:56.014Z,3.33
2022-09-04T15:55:25.517Z,1.52
2022-09-04T15:57:59.730Z,2.00
2022-09-04T16:00:31.979Z,1.63
2022-09-04T16:03:03.125Z,5.75
2022-09-04T16:05:41.462Z,1.98
2022-09-04T16:08:20.759Z,2.17
2022-09-04T16:10:57.328Z,2.65
2022-09-04T16:13:45.850Z,2.17
2022-09-04T16:16:18.555Z,4.82
2022-09-04T16:18:50.087Z,1.95
2022-09-04T16:21:23.559Z,1.55
2022-09-04T16:23:51.488Z,3.05
2022-09-04T16:26:20.282Z,2.28
2022-09-04T16:28:51.256Z,2.70
2022-09-04T16:31:24.243Z,3.30
2022-09-04T16:33:53.818Z,1.83
2022-09-04T16:36:26.042Z,2.70
2022-09-04T16:38:57.301Z,1.98
2022-09-04T16:41:29.073Z,1.83
2022-09-04T16:44:14.560Z,1.65
2022-09-04T16:46:48.239Z,3.30
2022-09-04T16:49:21.895Z,2.25
2022-09-04T16:51:57.237Z,3.08
2022-09-04T16:54:28.959Z,2.30
2022-09-04T16:57:12.639Z,2.17
2022-09-04T16:59:43.244Z,1.67
2022-09-04T17:02:18.822Z,2.10
2022-09-04T17:04:49.829Z,3.22
2022-09-04T17:07:22.181Z,3.58
2022-09-04T17:10:00.025Z,2.15
2022-09-04T17:12:33.322Z,1.50
2022-09-04T17:15:06.772Z,2.03
2022-09-04T17:17:37.259Z,2.38
2022-09-04T17:28:59.621Z,2.08
2022-09-04T17:29:11.491Z,3.25
2022-09-04T17:29:14.770Z,2.13
2022-09-04T17:31:17.728Z,5.43
2022-09-04T17:40:38.464Z,1.58
2022-09-04T17:40:52.234Z,2.45
2022-09-04T17:44:46.074Z,2.70
2022-09-04T17:47:21.850Z,1.90
2022-09-04T17:49:50.413Z,1.50
2022-09-04T17:52:22.701Z,1.98
2022-09-04T17:54:52.008Z,2.35
2022-09-04T17:57:26.019Z,2.75
2022-09-04T17:59:56.865Z,2.58
2022-09-04T18:04:54.605Z,3.65
2022-09-04T18:07:53.148Z,3.70
2022-09-04T18:10:20.304Z,2.88
2022-09-04T18:12:51.364Z,2.92
2022-09-04T18:15:32.247Z,2.30
2022-09-04T18:18:06.468Z,2.17
2022-09-04T18:20:37.883Z,1.90
2022-09-04T18:23:18.726Z,2.35
2022-09-04T18:28:16.849Z,3.53
2022-09-04T18:37:11.212Z,8.23
2022-09-04T18:37:17.799Z,4.93
2022-09-04T18:37:19.209Z,3.30
2022-09-04T18:39:24.965Z,2.22
2022-09-04T18:48:09.664Z,2.00
2022-09-04T18:50:50.998Z,3.20
2022-09-04T18:53:28.046Z,1.73
2022-09-04T18:55:57.723Z,2.97
2022-09-04T18:58:51.325Z,2.17
2022-09-04T19:01:27.354Z,1.55
2022-09-04T19:03:56.606Z,6.72
2022-09-04T19:06:32.135Z,4.10
2022-09-04T19:09:01.746Z,3.58
2022-09-04T19:11:30.765Z,2.47
2022-09-04T19:14:10.147Z,3.47
2022-09-04T19:16:42.370Z,3.63
2022-09-04T19:19:17.787Z,2.75
2022-09-04T19:21:57.953Z,4.75
2022-09-04T19:24:32.064Z,4.00
2022-09-04T19:27:27.210Z,2.92
2022-09-04T19:30:17.619Z,6.28
2022-09-04T19:35:18.619Z,2.60
2022-09-04T19:42:26.890Z,2.95
2022-09-04T19:46:00.739Z,4.47
2022-09-04T19:46:17.657Z,3.13
2022-09-04T19:46:29.736Z,6.75
2022-09-04T19:50:16.863Z,5.05
2022-09-04T19:53:36.729Z,4.40
2022-09-04T19:54:57.833Z,3.65
2022-09-04T19:57:40.675Z,3.42
2022-09-04T20:00:31.324Z,9.80
2022-09-04T20:02:59.906Z,3.08
2022-09-04T20:05:28.359Z,4.10
2022-09-04T20:08:00.283Z,3.58
2022-09-04T20:10:34.338Z,3.47
2022-09-04T20:13:06.248Z,5.35
2022-09-04T20:15:35.192Z,2.58
2022-09-04T20:18:08.342Z,4.25
2022-09-04T20:20:39.132Z,4.03
2022-09-04T20:23:34.078Z,5.88
2022-09-04T20:26:05.039Z,4.28
2022-09-04T20:28:37.298Z,3.22
2022-09-04T20:31:33.314Z,5.57
2022-09-04T20:34:08.199Z,2.70
2022-09-04T20:36:38.823Z,3.17
2022-09-04T20:39:09.669Z,4.57
2022-09-04T20:41:44.620Z,3.30
2022-09-04T20:44:16.251Z,3.70
2022-09-04T20:52:44.804Z,3.47
2022-09-04T20:52:50.656Z,3.08
2022-09-04T20:52:56.241Z,4.78
2022-09-04T20:55:33.539Z,6.90
2022-09-04T21:03:05.537Z,5.18
2022-09-04T21:03:23.236Z,5.85
2022-09-04T21:03:59.069Z,5.43
2022-09-04T21:06:34.693Z,5.65
2022-09-04T21:09:07.463Z,5.40
2022-09-04T21:11:41.974Z,5.35
2022-09-04T21:14:13.979Z,9.35
2022-09-04T21:16:50.671Z,7.35
2022-09-04T21:19:34.190Z,6.85
2022-09-04T21:22:32.454Z,5.68
2022-09-04T21:25:09.209Z,5.78
2022-09-04T21:27:57.831Z,7.53
2022-09-04T21:30:41.565Z,6.38
2022-09-04T21:33:27.607Z,7.05
2022-09-04T21:36:11.725Z,5.40
2022-09-04T21:38:59.689Z,5.45
2022-09-04T21:41:38.950Z,8.10
2022-09-04T21:44:26.930Z,4.93
2022-09-04T21:47:07.365Z,5.15
2022-09-04T21:49:59.155Z,5.60
2022-09-04T21:52:51.703Z,7.00
2022-09-04T22:01:34.593Z,7.10
2022-09-04T22:02:32.303Z,7.32
2022-09-04T22:02:44.444Z,4.50
2022-09-04T22:04:13.361Z,4.38
2022-09-04T22:08:24.059Z,4.75
2022-09-04T22:13:32.763Z,5.05
2022-09-04T22:13:42.964Z,4.43
2022-09-04T22:15:36.899Z,7.50
2022-09-04T22:18:22.337Z,6.03
2022-09-04T22:20:54.817Z,5.40
2022-09-04T22:23:31.255Z,6.38
2022-09-04T22:26:23.284Z,8.20
2022-09-04T22:29:14.717Z,5.10
2022-09-04T22:32:04.092Z,7.55
2022-09-04T22:34:58.675Z,4.40
2022-09-04T22:40:05.716Z,5.15
2022-09-04T22:42:37.021Z,7.47
2022-09-04T22:45:19.374Z,5.40
2022-09-04T22:47:56.473Z,5.45
2022-09-04T22:50:49.285Z,6.18
2022-09-04T22:53:35.624Z,5.53
2022-09-04T22:56:24.448Z,6.30
2022-09-04T22:59:20.475Z,5.32
2022-09-04T23:02:01.293Z,6.28
2022-09-04T23:04:47.602Z,7.15
2022-09-04T23:13:42.095Z,8.38
2022-09-04T23:14:02.505Z,6.13
2022-09-04T23:14:06.325Z,7.95
2022-09-04T23:16:50.255Z,6.53
2022-09-04T23:26:34.340Z,7.75
2022-09-04T23:26:51.091Z,7.13
2022-09-04T23:26:58.122Z,7.25
2022-09-04T23:28:27.033Z,7.40
2022-09-04T23:31:07.214Z,7.90
2022-09-04T23:33:49.516Z,6.45
2022-09-04T23:36:33.098Z,6.90
2022-09-04T23:39:28.014Z,7.82
2022-09-04T23:42:02.690Z,8.85
2022-09-04T23:44:54.298Z,8.88
2022-09-04T23:47:47.734Z,7.32
2022-09-04T23:50:20.727Z,6.63
2022-09-04T23:52:52.667Z,7.85
2022-09-04T23:55:27.879Z,8.27
2022-09-04T23:58:52.004Z,7.88
